Rices Mills, Vermont
Current Conditions -  °F | °C
As of 12:53 PM on Tuesday 21 Oct 2014 (Local Time) from KLEB Reporting Station
Light Rain Light Rain  
Wind Chill: 49°   Ceiling: 1400
Heat Index: 49°   Visibility: 8mi
Dew Point: 45°   Wind: 3mph
Humidity: 86%   Direction: 10°N
Pressure: 29.98"   Gusts: NA
Location:  43.8204°N, 72.274°W
Report Text: KLEB 211653Z 01003KT 8SM -RA OVC014 09/07 A2998 RMK AO2 RAE28B52 SLP152 P0001 T00940072
Loading
Personal Weather Stations






























Interactive Weather Map
Tropical Storm Tracking
New forecast layout! Learn more

10-Day Weather Forecast

Advertisements
Track Severe Weather on mobile